createdAt,value
2018-03-16T00:02:21.922Z,25.77
2018-03-16T00:04:50.076Z,29.05
2018-03-16T00:07:18.186Z,29.75
2018-03-16T00:09:46.283Z,28.23
2018-03-16T00:12:14.387Z,27.50
2018-03-16T00:27:42.507Z,29.05
2018-03-16T00:30:10.754Z,32.33
2018-03-16T00:32:38.837Z,32.35
2018-03-16T00:35:06.929Z,32.22
2018-03-16T00:37:35.075Z,30.45
2018-03-16T00:40:03.211Z,30.27
2018-03-16T00:42:31.285Z,31.58
2018-03-16T00:44:59.389Z,30.37
2018-03-16T00:47:28.484Z,31.25
2018-03-16T00:49:57.387Z,29.65
2018-03-16T00:52:26.426Z,28.52
2018-03-16T00:54:54.610Z,28.02
2018-03-16T00:57:22.706Z,30.00
2018-03-16T00:59:51.447Z,29.92
2018-03-16T01:02:20.281Z,29.80
2018-03-16T01:04:48.369Z,29.98
2018-03-16T01:07:16.458Z,30.95
2018-03-16T01:09:44.766Z,31.50
2018-03-16T01:12:12.830Z,30.67
2018-03-16T01:14:40.939Z,31.65
2018-03-16T01:17:09.065Z,32.40
2018-03-16T01:19:37.547Z,33.03
2018-03-16T01:22:05.695Z,31.33
2018-03-16T01:24:33.782Z,35.25
2018-03-16T01:27:01.873Z,34.25
2018-03-16T01:29:30.124Z,36.08
2018-03-16T01:31:58.235Z,33.60
2018-03-16T01:34:26.815Z,34.83
2018-03-16T01:36:54.977Z,35.55
2018-03-16T01:39:23.763Z,35.33
2018-03-16T01:41:51.924Z,35.88
2018-03-16T01:44:20.005Z,33.50
2018-03-16T01:46:48.123Z,32.35
2018-03-16T01:49:16.220Z,32.85
2018-03-16T01:51:44.327Z,32.10
2018-03-16T01:54:13.302Z,34.80
2018-03-16T01:56:41.464Z,34.40
2018-03-16T01:59:09.773Z,33.10
2018-03-16T02:01:37.873Z,32.80
2018-03-16T02:04:05.970Z,32.45
2018-03-16T02:06:34.690Z,34.63
2018-03-16T02:09:02.800Z,33.10
2018-03-16T02:11:30.900Z,31.92
2018-03-16T02:13:59.057Z,33.42
2018-03-16T02:16:27.147Z,33.35
2018-03-16T02:18:55.245Z,33.97
2018-03-16T02:21:23.399Z,33.40
2018-03-16T02:23:51.540Z,30.95
2018-03-16T02:26:20.493Z,33.20
2018-03-16T02:28:48.748Z,32.58
2018-03-16T02:31:16.857Z,34.25
2018-03-16T02:33:44.941Z,32.47
2018-03-16T02:36:14.178Z,33.15
2018-03-16T02:38:44.325Z,33.75
2018-03-16T02:41:12.762Z,33.10
2018-03-16T02:43:41.741Z,34.78
2018-03-16T02:46:10.123Z,34.28
2018-03-16T02:48:39.186Z,32.97
2018-03-16T02:51:07.342Z,33.92
2018-03-16T02:53:35.381Z,32.92
2018-03-16T02:56:04.386Z,32.13
2018-03-16T02:58:32.558Z,31.87
2018-03-16T03:01:00.652Z,31.62
2018-03-16T03:03:29.238Z,32.50
2018-03-16T03:05:57.338Z,31.62
2018-03-16T03:08:26.418Z,33.28
2018-03-16T03:10:54.545Z,30.95
2018-03-16T03:13:23.511Z,29.10
2018-03-16T03:15:52.260Z,32.35
2018-03-16T03:18:20.379Z,31.65
2018-03-16T03:20:48.512Z,30.85
2018-03-16T03:23:16.675Z,31.15
2018-03-16T03:25:44.762Z,31.05
2018-03-16T03:28:12.891Z,31.92
2018-03-16T03:30:40.988Z,34.53
2018-03-16T03:33:09.093Z,31.48
2018-03-16T03:35:37.202Z,34.10
2018-03-16T03:38:05.304Z,35.42
2018-03-16T03:40:33.398Z,33.85
2018-03-16T03:43:01.910Z,33.58
2018-03-16T03:45:30.004Z,33.40
2018-03-16T03:47:58.114Z,32.65
2018-03-16T03:50:26.213Z,34.17
2018-03-16T03:52:54.318Z,32.80
2018-03-16T03:55:22.438Z,32.13
2018-03-16T03:57:51.192Z,32.80
2018-03-16T04:00:19.398Z,32.20
2018-03-16T04:02:47.495Z,34.67
2018-03-16T04:05:15.591Z,32.75
2018-03-16T04:07:43.777Z,34.65
2018-03-16T04:10:11.890Z,33.83
2018-03-16T04:12:39.999Z,36.70
2018-03-16T04:15:09.262Z,33.38
2018-03-16T04:17:37.345Z,36.78
2018-03-16T04:20:05.445Z,34.72
2018-03-16T04:22:33.541Z,32.75
2018-03-16T04:25:01.647Z,33.50
2018-03-16T04:27:29.909Z,35.03
2018-03-16T04:29:58.042Z,36.05
2018-03-16T04:32:26.134Z,36.35
2018-03-16T04:34:54.226Z,38.15
2018-03-16T04:37:23.132Z,39.28
2018-03-16T04:39:51.225Z,37.30
2018-03-16T04:42:19.315Z,39.22
2018-03-16T04:44:47.437Z,39.08
2018-03-16T04:47:15.767Z,39.88
2018-03-16T04:49:44.861Z,37.92
2018-03-16T04:52:13.279Z,37.45
2018-03-16T04:54:41.345Z,38.67
2018-03-16T04:57:09.444Z,38.67
2018-03-16T04:59:37.619Z,37.45
2018-03-16T05:02:05.721Z,40.78
2018-03-16T05:04:34.229Z,41.10
2018-03-16T05:07:02.337Z,38.60
2018-03-16T05:09:36.271Z,40.05
2018-03-16T05:12:04.365Z,38.88
2018-03-16T05:14:34.065Z,39.60
2018-03-16T05:17:02.439Z,39.92
2018-03-16T05:19:31.382Z,41.08
2018-03-16T05:21:59.811Z,40.83
2018-03-16T05:24:27.957Z,39.20
2018-03-16T05:26:56.192Z,42.00
2018-03-16T05:29:24.271Z,41.63
2018-03-16T05:31:52.409Z,38.95
2018-03-16T05:34:21.319Z,39.50
2018-03-16T05:36:50.155Z,43.40
2018-03-16T05:39:18.917Z,44.33
2018-03-16T05:41:47.021Z,43.33
2018-03-16T05:44:16.371Z,44.30
2018-03-16T05:46:44.443Z,44.50
2018-03-16T05:49:12.575Z,42.67
2018-03-16T05:51:40.709Z,45.35
2018-03-16T05:54:08.807Z,44.25
2018-03-16T05:56:36.957Z,44.75
2018-03-16T05:59:05.052Z,43.87
2018-03-16T06:01:33.216Z,45.47
2018-03-16T06:04:02.977Z,46.42
2018-03-16T06:06:31.178Z,43.08
2018-03-16T06:08:59.492Z,44.67
2018-03-16T06:11:28.926Z,43.22
2018-03-16T06:13:58.098Z,44.08
2018-03-16T06:16:27.441Z,43.75
2018-03-16T06:18:56.279Z,42.88
2018-03-16T06:21:24.388Z,43.78
2018-03-16T06:23:52.486Z,43.63
2018-03-16T06:26:21.457Z,44.47
2018-03-16T06:28:49.711Z,46.80
2018-03-16T06:31:17.899Z,46.65
2018-03-16T06:33:46.029Z,45.45
2018-03-16T06:36:14.109Z,44.92
2018-03-16T06:38:42.313Z,44.42
2018-03-16T06:41:10.432Z,44.80
2018-03-16T06:43:38.592Z,45.28
2018-03-16T06:46:06.682Z,47.03
2018-03-16T06:48:35.087Z,48.10
2018-03-16T06:51:03.199Z,48.65
2018-03-16T06:53:31.299Z,45.83
2018-03-16T06:55:59.401Z,48.00
2018-03-16T06:58:27.646Z,48.75
2018-03-16T07:00:56.393Z,50.20
2018-03-16T07:03:24.498Z,47.67
2018-03-16T07:05:52.616Z,48.00
2018-03-16T07:08:21.410Z,49.20
2018-03-16T07:10:49.584Z,47.78
2018-03-16T07:13:17.673Z,50.30
2018-03-16T07:15:45.839Z,48.08
2018-03-16T07:18:13.923Z,47.15
2018-03-16T07:20:42.102Z,50.53
2018-03-16T07:23:10.231Z,50.40
2018-03-16T07:25:39.207Z,51.80
2018-03-16T07:28:07.286Z,48.90
2018-03-16T07:30:35.424Z,51.03
2018-03-16T07:33:03.524Z,49.35
2018-03-16T07:35:31.638Z,49.38
2018-03-16T07:37:59.746Z,53.70
2018-03-16T07:40:27.890Z,50.10
2018-03-16T07:42:55.996Z,46.95
2018-03-16T07:48:38.630Z,49.03
2018-03-16T07:51:06.768Z,49.22
2018-03-16T07:53:34.904Z,51.90
2018-03-16T07:56:03.000Z,51.55
2018-03-16T07:58:32.101Z,46.80
2018-03-16T08:01:00.293Z,51.55
2018-03-16T08:03:28.725Z,48.75
2018-03-16T08:05:56.870Z,50.85
2018-03-16T08:08:24.991Z,49.33
2018-03-16T08:10:53.095Z,48.97
2018-03-16T08:13:21.288Z,50.65
2018-03-16T08:15:49.522Z,48.30
2018-03-16T08:18:17.627Z,49.35
2018-03-16T08:20:45.754Z,50.55
2018-03-16T08:23:13.863Z,47.67
2018-03-16T08:25:41.941Z,47.75
2018-03-16T08:28:10.749Z,49.40
2018-03-16T08:30:39.155Z,50.17
2018-03-16T08:33:07.256Z,48.50
2018-03-16T08:35:35.382Z,48.40
2018-03-16T08:38:03.524Z,47.38
2018-03-16T08:40:31.632Z,50.70
2018-03-16T08:42:59.794Z,50.58
2018-03-16T08:45:28.048Z,49.10
2018-03-16T08:47:56.152Z,48.87
2018-03-16T08:50:24.270Z,49.30
2018-03-16T08:52:52.372Z,49.00
2018-03-16T08:55:20.561Z,46.95
2018-03-16T08:57:48.690Z,50.97
2018-03-16T09:00:16.972Z,51.90
2018-03-16T09:02:45.058Z,53.25
2018-03-16T09:05:13.282Z,51.85
2018-03-16T09:07:41.432Z,49.30
2018-03-16T09:10:09.476Z,47.85
2018-03-16T09:12:38.609Z,49.55
2018-03-16T09:15:06.702Z,48.45
2018-03-16T09:17:34.826Z,49.88
2018-03-16T09:20:02.927Z,46.40
2018-03-16T09:22:31.046Z,48.28
2018-03-16T09:24:59.178Z,47.17
2018-03-16T09:27:27.359Z,47.83
2018-03-16T09:29:55.486Z,47.05
2018-03-16T09:32:23.654Z,49.42
2018-03-16T09:34:51.783Z,46.72
2018-03-16T09:37:20.725Z,48.87
2018-03-16T09:39:48.836Z,47.22
2018-03-16T09:42:16.962Z,46.37
2018-03-16T09:44:45.730Z,47.90
2018-03-16T09:47:13.848Z,45.53
2018-03-16T09:49:41.950Z,45.15
2018-03-16T09:52:10.054Z,43.92
2018-03-16T09:54:55.712Z,45.78
2018-03-16T09:57:23.808Z,43.90
2018-03-16T09:59:51.964Z,44.97
2018-03-16T10:02:20.078Z,47.60
2018-03-16T10:04:48.438Z,45.70
2018-03-16T10:07:16.559Z,45.95
2018-03-16T10:09:44.673Z,45.58
2018-03-16T10:12:12.783Z,47.47
2018-03-16T10:14:40.920Z,44.33
2018-03-16T10:17:09.011Z,45.42
2018-03-16T10:19:37.118Z,46.20
2018-03-16T10:22:05.214Z,47.92
2018-03-16T10:24:33.311Z,46.22
2018-03-16T10:27:01.442Z,46.22
2018-03-16T10:29:29.556Z,47.40
2018-03-16T10:31:57.930Z,46.00
2018-03-16T10:34:26.302Z,44.35
2018-03-16T10:36:54.392Z,48.45
2018-03-16T10:39:22.567Z,48.20
2018-03-16T10:41:50.751Z,47.05
2018-03-16T10:44:18.870Z,46.10
2018-03-16T10:59:47.007Z,46.35
2018-03-16T11:02:20.102Z,48.65
2018-03-16T11:17:53.289Z,45.05
2018-03-16T11:20:21.737Z,45.88
2018-03-16T11:22:50.150Z,45.67
2018-03-16T11:25:18.278Z,46.37
2018-03-16T11:27:46.380Z,44.90
2018-03-16T11:30:14.481Z,44.17
2018-03-16T11:32:42.607Z,50.83
2018-03-16T11:35:11.698Z,46.03
2018-03-16T11:37:39.809Z,45.45
2018-03-16T11:40:07.912Z,43.90
2018-03-16T11:42:36.016Z,43.10
2018-03-16T11:45:04.122Z,43.15
2018-03-16T11:47:32.399Z,44.63
2018-03-16T11:50:00.487Z,43.17
2018-03-16T11:52:28.572Z,41.95
2018-03-16T11:54:57.010Z,43.03
2018-03-16T11:57:25.112Z,42.50
2018-03-16T11:59:53.214Z,41.90
2018-03-16T12:02:21.934Z,42.55
2018-03-16T12:04:50.082Z,44.28
2018-03-16T12:07:23.154Z,40.85
2018-03-16T12:09:51.316Z,40.70
2018-03-16T12:12:19.703Z,42.42
2018-03-16T12:14:47.829Z,40.35
2018-03-16T12:17:15.934Z,39.10
2018-03-16T12:19:44.121Z,37.90
2018-03-16T12:22:12.217Z,36.90
2018-03-16T12:24:40.322Z,36.50
2018-03-16T12:27:08.430Z,35.70
2018-03-16T12:29:37.520Z,35.47
2018-03-16T12:32:05.615Z,35.70
2018-03-16T12:34:34.632Z,36.58
2018-03-16T12:37:02.815Z,35.40
2018-03-16T12:39:31.192Z,36.05
2018-03-16T12:41:59.270Z,35.20
2018-03-16T12:44:27.365Z,34.50
2018-03-16T12:46:55.638Z,33.83
2018-03-16T12:49:23.731Z,31.25
2018-03-16T12:51:51.996Z,32.03
2018-03-16T12:54:20.427Z,32.40
2018-03-16T12:56:48.593Z,32.20
2018-03-16T12:59:17.911Z,32.10
2018-03-16T13:01:46.034Z,32.13
2018-03-16T13:04:14.131Z,29.75
2018-03-16T13:06:42.319Z,33.53
2018-03-16T13:09:10.400Z,30.75
2018-03-16T13:11:38.489Z,30.33
2018-03-16T13:14:06.941Z,29.67
2018-03-16T13:16:35.139Z,27.30
2018-03-16T13:19:03.244Z,30.90
2018-03-16T13:21:31.341Z,29.08
2018-03-16T13:23:59.448Z,32.83
2018-03-16T13:26:27.638Z,26.83
2018-03-16T13:28:55.769Z,28.87
2018-03-16T13:31:23.877Z,27.92
2018-03-16T13:33:52.021Z,28.58
2018-03-16T13:36:20.213Z,28.20
2018-03-16T13:38:48.375Z,28.08
2018-03-16T13:41:16.466Z,28.85
2018-03-16T13:56:49.590Z,27.37
2018-03-16T13:59:18.457Z,29.45
2018-03-16T14:01:47.203Z,27.80
2018-03-16T14:17:15.363Z,28.67
2018-03-16T14:19:43.462Z,28.87
2018-03-16T14:22:11.549Z,29.65
2018-03-16T14:24:39.664Z,28.83
2018-03-16T14:27:07.914Z,28.90
2018-03-16T14:29:36.013Z,28.62
2018-03-16T14:32:04.448Z,29.12
2018-03-16T14:34:32.540Z,27.95
2018-03-16T14:37:00.680Z,27.80
2018-03-16T14:39:28.844Z,29.27
2018-03-16T14:41:56.925Z,25.35
2018-03-16T14:44:25.972Z,27.15
2018-03-16T14:46:54.123Z,25.27
2018-03-16T14:49:22.198Z,25.40
2018-03-16T14:51:50.586Z,24.75
2018-03-16T14:54:19.043Z,24.67
2018-03-16T14:56:47.247Z,24.12
2018-03-16T14:59:15.440Z,27.33
2018-03-16T15:01:43.551Z,25.40
2018-03-16T15:04:11.651Z,23.58
2018-03-16T15:06:40.509Z,25.77
2018-03-16T15:09:08.627Z,26.00
2018-03-16T15:11:36.873Z,23.77
2018-03-16T15:14:04.945Z,25.10
2018-03-16T15:16:33.037Z,23.30
2018-03-16T15:19:01.919Z,24.83
2018-03-16T15:21:30.037Z,22.02
2018-03-16T15:23:58.523Z,23.50
2018-03-16T15:26:26.683Z,23.08
2018-03-16T15:28:54.775Z,22.83
2018-03-16T15:31:22.870Z,23.23
2018-03-16T15:33:50.988Z,24.92
2018-03-16T15:36:19.091Z,25.02
2018-03-16T15:38:47.191Z,24.45
2018-03-16T15:41:15.553Z,23.65
2018-03-16T15:43:43.667Z,22.92
2018-03-16T15:46:11.746Z,25.12
2018-03-16T15:48:39.873Z,25.42
2018-03-16T15:51:07.980Z,23.70
2018-03-16T15:53:36.959Z,23.20
2018-03-16T15:56:05.073Z,22.33
2018-03-16T15:58:33.199Z,21.70
2018-03-16T16:01:01.332Z,19.83
2018-03-16T16:03:29.461Z,20.37
2018-03-16T16:05:57.571Z,20.17
2018-03-16T16:08:25.681Z,22.02
2018-03-16T16:10:53.798Z,19.70
2018-03-16T16:13:21.945Z,18.67
2018-03-16T16:15:50.040Z,20.23
2018-03-16T16:18:18.163Z,21.92
2018-03-16T16:20:46.419Z,20.40
2018-03-16T16:23:14.591Z,21.60
2018-03-16T16:25:43.425Z,19.73
2018-03-16T16:28:11.529Z,20.52
2018-03-16T16:30:39.643Z,21.65
2018-03-16T16:33:07.735Z,23.15
2018-03-16T16:35:36.187Z,23.15
2018-03-16T16:38:04.265Z,24.73
2018-03-16T16:40:33.191Z,19.48
2018-03-16T16:43:01.407Z,17.95
2018-03-16T16:45:29.513Z,19.33
2018-03-16T16:47:57.685Z,20.77
2018-03-16T16:50:25.851Z,20.40
2018-03-16T16:52:54.745Z,19.48
2018-03-16T16:55:22.853Z,19.48
2018-03-16T16:57:50.967Z,19.55
2018-03-16T17:00:19.234Z,19.20
2018-03-16T17:02:47.933Z,17.80
2018-03-16T17:05:16.045Z,15.95
2018-03-16T17:07:44.294Z,17.25
2018-03-16T17:10:12.394Z,15.68
2018-03-16T17:12:40.534Z,19.23
2018-03-16T17:15:09.642Z,17.58
2018-03-16T17:17:38.745Z,17.25
2018-03-16T17:20:07.743Z,18.77
2018-03-16T17:22:35.847Z,18.27
2018-03-16T17:25:04.495Z,18.85
2018-03-16T17:27:32.613Z,19.77
2018-03-16T17:30:00.694Z,18.87
2018-03-16T17:32:28.868Z,19.87
2018-03-16T17:34:57.463Z,19.12
2018-03-16T17:37:27.134Z,19.15
2018-03-16T17:39:55.227Z,19.02
2018-03-16T17:42:23.441Z,20.50
2018-03-16T17:44:51.526Z,19.48
2018-03-16T17:47:19.714Z,19.90
2018-03-16T17:49:47.824Z,20.58
2018-03-16T17:52:16.765Z,22.27
2018-03-16T17:54:44.890Z,20.70
2018-03-16T17:57:12.991Z,21.75
2018-03-16T17:59:46.158Z,22.13
2018-03-16T18:02:14.283Z,22.30
2018-03-16T18:04:42.730Z,21.65
2018-03-16T18:07:10.862Z,22.37
2018-03-16T18:09:38.971Z,21.87
2018-03-16T18:12:07.162Z,21.92
2018-03-16T18:14:35.299Z,20.90
2018-03-16T18:17:03.386Z,20.42
2018-03-16T18:19:31.503Z,20.62
2018-03-16T18:21:59.753Z,20.62
2018-03-16T18:24:27.873Z,20.10
2018-03-16T18:26:56.054Z,21.35
2018-03-16T18:29:25.050Z,21.77
2018-03-16T18:31:53.171Z,19.42
2018-03-16T18:34:21.273Z,21.45
2018-03-16T18:36:50.170Z,20.73
2018-03-16T18:39:19.084Z,20.10
2018-03-16T18:41:47.531Z,19.73
2018-03-16T18:44:16.450Z,19.90
2018-03-16T18:46:44.550Z,19.87
2018-03-16T18:49:12.702Z,20.25
2018-03-16T18:51:40.804Z,20.85
2018-03-16T18:54:09.938Z,20.67
2018-03-16T18:56:39.051Z,19.70
2018-03-16T18:59:07.394Z,19.87
2018-03-16T19:01:35.486Z,20.42
2018-03-16T19:04:03.612Z,20.10
2018-03-16T19:06:31.804Z,20.60
2018-03-16T19:08:59.881Z,19.70
2018-03-16T19:11:28.067Z,19.02
2018-03-16T19:13:56.218Z,19.15
2018-03-16T19:16:24.297Z,17.77
2018-03-16T19:18:52.464Z,16.60
2018-03-16T19:21:20.570Z,18.02
2018-03-16T19:23:48.726Z,18.25
2018-03-16T19:26:16.807Z,17.27
2018-03-16T19:28:45.186Z,18.75
2018-03-16T19:31:13.299Z,16.17
2018-03-16T19:33:41.392Z,16.42
2018-03-16T19:36:09.567Z,18.25
2018-03-16T19:38:37.676Z,17.02
2018-03-16T19:41:05.775Z,17.87
2018-03-16T19:43:34.170Z,17.35
2018-03-16T19:46:03.122Z,17.48
2018-03-16T19:48:31.221Z,16.08
2018-03-16T19:50:59.331Z,18.00
2018-03-16T19:53:28.311Z,17.02
2018-03-16T19:55:57.220Z,18.70
2018-03-16T19:58:25.678Z,18.40
2018-03-16T20:00:53.792Z,16.42
2018-03-16T20:03:21.974Z,17.85
2018-03-16T20:05:50.141Z,16.85
2018-03-16T20:21:23.273Z,16.90
2018-03-16T20:23:51.377Z,17.30
2018-03-16T20:26:19.830Z,17.33
2018-03-16T20:28:47.939Z,16.73
2018-03-16T20:31:16.957Z,16.10
2018-03-16T20:33:45.034Z,17.08
2018-03-16T20:36:13.211Z,16.75
2018-03-16T20:38:42.261Z,15.90
2018-03-16T20:41:10.370Z,16.87
2018-03-16T20:43:39.689Z,16.67
2018-03-16T20:46:07.799Z,15.05
2018-03-16T21:01:35.923Z,15.70
2018-03-16T21:04:04.134Z,15.45
2018-03-16T21:06:32.228Z,15.55
2018-03-16T21:09:00.355Z,16.35
2018-03-16T21:24:33.475Z,14.43
2018-03-16T21:27:01.589Z,16.37
2018-03-16T21:29:29.900Z,15.68
2018-03-16T21:31:57.994Z,15.00
2018-03-16T21:34:26.155Z,17.12
2018-03-16T21:36:55.195Z,14.73
2018-03-16T21:39:23.513Z,16.25
2018-03-16T21:41:51.576Z,14.65
2018-03-16T21:44:19.732Z,14.35
2018-03-16T21:46:48.344Z,14.25
2018-03-16T21:49:17.377Z,15.70
2018-03-16T21:51:45.459Z,14.77
2018-03-16T21:54:13.642Z,15.23
2018-03-16T21:56:41.746Z,15.60
2018-03-16T21:59:10.460Z,15.98
2018-03-16T22:01:38.646Z,15.35
2018-03-16T22:04:06.722Z,15.23
2018-03-16T22:06:34.851Z,14.93
2018-03-16T22:09:02.944Z,15.40
2018-03-16T22:11:31.044Z,15.63
2018-03-16T22:13:59.159Z,15.70
2018-03-16T22:16:28.220Z,14.15
2018-03-16T22:18:56.304Z,13.15
2018-03-16T22:21:25.155Z,14.00
2018-03-16T22:23:53.230Z,14.55
2018-03-16T22:26:21.314Z,14.95
2018-03-16T22:28:49.440Z,13.27
2018-03-16T22:31:17.570Z,12.68
2018-03-16T22:33:45.685Z,14.82
2018-03-16T22:36:13.812Z,14.75
2018-03-16T22:38:41.990Z,13.73
2018-03-16T22:41:10.191Z,11.68
2018-03-16T22:43:38.334Z,14.00
2018-03-16T22:59:07.199Z,13.43
2018-03-16T23:01:35.301Z,15.20
2018-03-16T23:04:03.407Z,14.00
2018-03-16T23:06:31.558Z,13.70
2018-03-16T23:09:00.530Z,12.93
2018-03-16T23:11:28.750Z,13.30
2018-03-16T23:13:57.126Z,13.55
2018-03-16T23:16:25.200Z,15.35
2018-03-16T23:18:53.958Z,14.05
2018-03-16T23:21:22.120Z,13.50
2018-03-16T23:23:50.330Z,14.65
2018-03-16T23:26:18.450Z,12.30
2018-03-16T23:28:46.552Z,13.62
2018-03-16T23:44:14.668Z,13.55
2018-03-16T23:46:43.147Z,13.25
2018-03-16T23:49:11.269Z,12.80
2018-03-16T23:51:39.365Z,13.35
2018-03-16T23:54:07.478Z,12.88
2018-03-16T23:56:35.594Z,12.80
2018-03-16T23:59:03.890Z,11.25
